createdAt,value
2017-11-26T00:01:41.190Z,24.75
2017-11-26T00:04:08.697Z,28.12
2017-11-26T00:06:36.277Z,31.45
2017-11-26T00:09:03.809Z,31.15
2017-11-26T00:11:31.345Z,30.35
2017-11-26T00:13:59.617Z,32.35
2017-11-26T00:16:27.919Z,32.97
2017-11-26T00:18:55.425Z,31.67
2017-11-26T00:21:23.019Z,32.38
2017-11-26T00:23:51.397Z,32.70
2017-11-26T00:26:19.680Z,31.20
2017-11-26T00:28:47.202Z,29.73
2017-11-26T00:31:14.704Z,32.00
2017-11-26T00:33:42.251Z,33.17
2017-11-26T00:36:10.543Z,35.15
2017-11-26T00:38:38.052Z,30.55
2017-11-26T00:41:05.650Z,28.45
2017-11-26T00:43:33.929Z,31.37
2017-11-26T00:46:01.478Z,28.98
2017-11-26T00:48:29.771Z,31.92
2017-11-26T00:50:57.313Z,29.75
2017-11-26T00:53:25.572Z,29.42
2017-11-26T00:55:53.847Z,32.38
2017-11-26T00:58:21.337Z,28.85
2017-11-26T01:00:48.859Z,29.48
2017-11-26T01:03:16.458Z,26.85
2017-11-26T01:05:43.975Z,28.87
2017-11-26T01:08:11.579Z,29.42
2017-11-26T01:10:39.809Z,28.00
2017-11-26T01:13:07.402Z,26.55
2017-11-26T01:15:35.686Z,27.08
2017-11-26T01:18:03.227Z,26.08
2017-11-26T01:20:31.824Z,25.48
2017-11-26T01:23:00.067Z,23.15
2017-11-26T01:25:27.655Z,24.12
2017-11-26T01:27:55.918Z,24.05
2017-11-26T01:30:24.188Z,24.15
2017-11-26T01:32:52.491Z,22.37
2017-11-26T01:35:20.042Z,23.27
2017-11-26T01:37:48.311Z,24.10
2017-11-26T01:40:16.597Z,27.45
2017-11-26T01:42:44.858Z,25.37
2017-11-26T01:45:13.124Z,22.83
2017-11-26T01:47:41.405Z,24.92
2017-11-26T01:50:09.668Z,24.85
2017-11-26T01:52:37.269Z,23.73
2017-11-26T01:55:04.764Z,26.42
2017-11-26T01:57:32.284Z,25.52
2017-11-26T01:59:59.780Z,24.25
2017-11-26T02:02:27.274Z,29.08
2017-11-26T02:04:55.576Z,24.92
2017-11-26T02:07:23.144Z,24.90
2017-11-26T02:09:50.657Z,27.08
2017-11-26T02:12:18.165Z,26.70
2017-11-26T02:14:45.655Z,25.65
2017-11-26T02:17:13.180Z,25.48
2017-11-26T02:19:40.674Z,26.85
2017-11-26T02:22:08.173Z,25.73
2017-11-26T02:24:36.438Z,26.27
2017-11-26T02:27:04.023Z,25.60
2017-11-26T02:29:31.539Z,24.45
2017-11-26T02:32:11.066Z,28.25
2017-11-26T02:34:50.524Z,25.35
2017-11-26T02:37:18.009Z,21.92
2017-11-26T02:39:45.501Z,24.90
2017-11-26T02:42:13.018Z,25.40
2017-11-26T02:44:41.275Z,29.35
2017-11-26T02:47:08.773Z,23.98
2017-11-26T02:49:36.323Z,24.87
2017-11-26T02:52:03.867Z,24.87
2017-11-26T02:54:32.119Z,27.35
2017-11-26T02:56:59.638Z,26.12
2017-11-26T02:59:27.138Z,25.02
2017-11-26T03:01:54.638Z,27.70
2017-11-26T03:04:22.153Z,27.25
2017-11-26T03:06:49.649Z,26.83
2017-11-26T03:09:17.148Z,29.90
2017-11-26T03:11:44.638Z,27.30
2017-11-26T03:14:13.649Z,28.73
2017-11-26T03:16:41.938Z,31.48
2017-11-26T03:19:09.497Z,28.70
2017-11-26T03:21:36.988Z,30.12
2017-11-26T03:24:04.536Z,28.48
2017-11-26T03:26:32.053Z,30.67
2017-11-26T03:29:00.312Z,27.27
2017-11-26T03:31:27.813Z,28.70
2017-11-26T03:33:55.312Z,30.88
2017-11-26T03:36:22.801Z,31.55
2017-11-26T03:38:51.067Z,26.92
2017-11-26T03:41:19.357Z,29.58
2017-11-26T03:43:47.614Z,27.45
2017-11-26T03:46:15.129Z,31.02
2017-11-26T03:48:42.670Z,27.52
2017-11-26T03:51:10.161Z,28.60
2017-11-26T03:53:37.787Z,28.58
2017-11-26T03:56:05.345Z,31.23
2017-11-26T03:58:32.852Z,30.92
2017-11-26T04:01:00.447Z,32.42
2017-11-26T04:03:28.729Z,31.85
2017-11-26T04:05:57.006Z,35.05
2017-11-26T04:08:25.859Z,36.20
2017-11-26T04:10:54.163Z,34.83
2017-11-26T04:13:22.463Z,32.08
2017-11-26T04:15:50.042Z,34.63
2017-11-26T04:18:17.586Z,34.45
2017-11-26T04:20:45.069Z,34.20
2017-11-26T04:23:12.588Z,36.40
2017-11-26T04:25:40.846Z,36.20
2017-11-26T04:28:09.113Z,34.85
2017-11-26T04:30:36.601Z,35.17
2017-11-26T04:33:04.159Z,33.80
2017-11-26T04:35:31.667Z,36.65
2017-11-26T04:37:59.174Z,33.72
2017-11-26T04:40:27.444Z,33.70
2017-11-26T04:42:55.733Z,33.72
2017-11-26T04:45:23.232Z,34.00
2017-11-26T04:47:50.725Z,38.17
2017-11-26T04:50:18.226Z,33.25
2017-11-26T04:52:45.719Z,34.75
2017-11-26T04:55:13.227Z,34.65
2017-11-26T04:57:40.777Z,32.85
2017-11-26T05:00:09.033Z,35.47
2017-11-26T05:02:36.529Z,36.38
2017-11-26T05:05:04.078Z,37.92
2017-11-26T05:07:31.629Z,35.40
2017-11-26T05:09:59.924Z,38.17
2017-11-26T05:12:27.419Z,36.95
2017-11-26T05:14:54.917Z,33.70
2017-11-26T05:17:23.215Z,38.30
2017-11-26T05:19:50.761Z,35.55
2017-11-26T05:22:19.030Z,36.03
2017-11-26T05:24:47.381Z,36.08
2017-11-26T05:27:14.970Z,36.33
2017-11-26T05:29:43.258Z,31.73
2017-11-26T05:32:10.805Z,37.20
2017-11-26T05:34:39.061Z,34.30
2017-11-26T05:37:06.555Z,36.20
2017-11-26T05:39:34.062Z,39.22
2017-11-26T05:42:01.559Z,37.45
2017-11-26T05:44:29.837Z,37.38
2017-11-26T05:46:58.095Z,33.53
2017-11-26T05:49:26.414Z,37.35
2017-11-26T05:51:53.925Z,37.05
2017-11-26T05:54:22.225Z,37.80
2017-11-26T05:56:49.778Z,37.38
2017-11-26T05:59:18.067Z,35.90
2017-11-26T06:01:45.555Z,37.83
2017-11-26T06:04:13.067Z,33.35
2017-11-26T06:06:41.352Z,32.63
2017-11-26T06:09:09.631Z,34.53
2017-11-26T06:11:37.134Z,35.85
2017-11-26T06:14:04.622Z,34.90
2017-11-26T06:16:32.128Z,37.30
2017-11-26T06:18:59.624Z,37.83
2017-11-26T06:21:27.128Z,34.22
2017-11-26T06:23:54.778Z,35.05
2017-11-26T06:26:23.067Z,35.90
2017-11-26T06:28:50.574Z,34.50
2017-11-26T06:31:18.075Z,35.97
2017-11-26T06:33:47.301Z,34.15
2017-11-26T06:36:14.931Z,31.90
2017-11-26T06:38:43.418Z,35.25
2017-11-26T06:41:11.681Z,32.22
2017-11-26T06:43:39.246Z,33.83
2017-11-26T06:46:06.729Z,30.25
2017-11-26T06:48:34.273Z,31.20
2017-11-26T06:51:02.601Z,29.63
2017-11-26T06:53:30.110Z,28.15
2017-11-26T06:55:57.602Z,29.10
2017-11-26T06:58:25.111Z,30.15
2017-11-26T07:00:53.400Z,26.42
2017-11-26T07:03:21.678Z,27.50
2017-11-26T07:05:49.166Z,25.70
2017-11-26T07:08:16.690Z,25.77
2017-11-26T07:10:45.707Z,24.58
2017-11-26T07:13:13.346Z,26.37
2017-11-26T07:15:41.612Z,24.98
2017-11-26T07:18:09.872Z,23.60
2017-11-26T07:20:38.173Z,24.42
2017-11-26T07:23:05.761Z,21.23
2017-11-26T07:25:34.065Z,22.67
2017-11-26T07:28:01.570Z,21.80
2017-11-26T07:30:29.058Z,23.10
2017-11-26T07:32:56.578Z,23.75
2017-11-26T07:35:25.548Z,20.25
2017-11-26T07:37:53.445Z,19.90
2017-11-26T07:40:21.876Z,20.55
2017-11-26T07:42:49.385Z,19.87
2017-11-26T07:45:16.942Z,22.23
2017-11-26T07:47:45.244Z,20.55
2017-11-26T07:50:12.775Z,21.40
2017-11-26T07:52:41.030Z,20.75
2017-11-26T07:55:08.541Z,19.83
2017-11-26T07:57:36.038Z,20.55
2017-11-26T08:00:03.561Z,19.55
2017-11-26T08:02:31.176Z,19.50
2017-11-26T08:04:59.529Z,17.65
2017-11-26T08:07:27.025Z,19.73
2017-11-26T08:09:55.302Z,19.55
2017-11-26T08:12:22.807Z,16.90
2017-11-26T08:14:50.419Z,16.55
2017-11-26T08:17:18.701Z,16.53
2017-11-26T08:19:46.248Z,18.80
2017-11-26T08:22:14.625Z,14.25
2017-11-26T08:24:42.893Z,16.23
2017-11-26T08:27:11.149Z,16.62
2017-11-26T08:29:38.661Z,15.30
2017-11-26T08:32:06.157Z,15.40
2017-11-26T08:34:33.677Z,14.80
2017-11-26T08:37:01.174Z,14.90
2017-11-26T08:39:28.687Z,12.83
2017-11-26T08:41:56.185Z,12.97
2017-11-26T08:44:23.670Z,15.87
2017-11-26T08:46:51.207Z,15.13
2017-11-26T08:49:18.710Z,14.73
2017-11-26T08:51:46.970Z,14.03
2017-11-26T08:54:15.234Z,14.47
2017-11-26T08:56:42.742Z,15.03
2017-11-26T08:59:10.242Z,13.50
2017-11-26T09:01:37.747Z,15.90
2017-11-26T09:04:05.254Z,14.07
2017-11-26T09:06:47.634Z,13.10
2017-11-26T09:09:15.126Z,13.87
2017-11-26T09:11:42.629Z,11.97
2017-11-26T09:14:10.125Z,11.87
2017-11-26T09:16:37.631Z,11.87
2017-11-26T09:19:05.926Z,12.37
2017-11-26T09:21:33.430Z,12.80
2017-11-26T09:24:00.927Z,12.13
2017-11-26T09:26:29.202Z,11.37
2017-11-26T09:28:57.469Z,10.53
2017-11-26T09:31:25.720Z,10.53
2017-11-26T09:33:53.229Z,10.27
2017-11-26T09:36:20.722Z,10.00
2017-11-26T09:38:48.205Z,10.77
2017-11-26T09:41:15.792Z,10.60
2017-11-26T09:43:43.298Z,11.40
2017-11-26T09:46:10.785Z,9.47
2017-11-26T09:48:39.107Z,11.50
2017-11-26T09:51:06.586Z,10.10
2017-11-26T09:53:34.096Z,10.13
2017-11-26T09:56:02.370Z,10.73
2017-11-26T09:58:30.616Z,9.67
2017-11-26T10:00:58.103Z,9.17
2017-11-26T10:03:26.361Z,12.80
2017-11-26T10:05:53.852Z,8.77
2017-11-26T10:08:21.344Z,9.80
2017-11-26T10:10:48.832Z,8.30
2017-11-26T10:13:16.327Z,8.37
2017-11-26T10:15:43.813Z,9.93
2017-11-26T10:18:11.314Z,8.97
2017-11-26T10:20:39.569Z,9.43
2017-11-26T10:23:07.088Z,8.60
2017-11-26T10:25:34.613Z,10.60
2017-11-26T10:28:02.866Z,8.37
2017-11-26T10:30:30.474Z,8.40
2017-11-26T10:32:57.957Z,7.90
2017-11-26T10:35:25.476Z,7.83
2017-11-26T10:37:53.736Z,8.57
2017-11-26T10:40:21.225Z,7.57
2017-11-26T10:42:48.704Z,7.43
2017-11-26T10:45:16.254Z,7.00
2017-11-26T10:47:43.751Z,7.70
2017-11-26T10:50:11.349Z,7.40
2017-11-26T10:52:38.846Z,7.23
2017-11-26T10:55:06.329Z,7.37
2017-11-26T10:57:33.916Z,6.80
2017-11-26T11:00:02.165Z,7.33
2017-11-26T11:02:30.433Z,7.30
2017-11-26T11:04:57.925Z,8.30
2017-11-26T11:07:26.181Z,7.80
2017-11-26T11:09:53.777Z,7.83
2017-11-26T11:12:21.277Z,7.10
2017-11-26T11:14:48.814Z,6.97
2017-11-26T11:17:16.327Z,8.33
2017-11-26T11:19:43.928Z,8.90
2017-11-26T11:22:11.417Z,7.80
2017-11-26T11:24:38.892Z,7.10
2017-11-26T11:27:06.396Z,7.23
2017-11-26T11:29:33.948Z,6.97
2017-11-26T11:32:01.450Z,6.27
2017-11-26T11:34:28.957Z,10.07
2017-11-26T11:36:56.433Z,7.37
2017-11-26T11:39:23.923Z,12.07
2017-11-26T11:41:51.415Z,6.97
2017-11-26T11:44:19.701Z,6.70
2017-11-26T11:46:47.191Z,6.40
2017-11-26T11:49:14.670Z,6.83
2017-11-26T11:51:42.173Z,6.80
2017-11-26T11:54:10.416Z,7.20
2017-11-26T11:56:37.918Z,6.00
2017-11-26T11:59:05.460Z,6.67
2017-11-26T12:01:33.714Z,7.03
2017-11-26T12:04:01.205Z,7.10
2017-11-26T12:06:28.700Z,7.50
2017-11-26T12:08:56.177Z,6.67
2017-11-26T12:11:23.699Z,6.73
2017-11-26T12:13:51.182Z,7.37
2017-11-26T12:16:18.665Z,7.53
2017-11-26T12:18:46.179Z,6.33
2017-11-26T12:21:13.657Z,6.73
2017-11-26T12:23:41.155Z,5.90
2017-11-26T12:26:09.468Z,6.33
2017-11-26T12:28:36.997Z,5.93
2017-11-26T12:31:05.275Z,6.40
2017-11-26T12:33:32.790Z,6.93
2017-11-26T12:36:00.273Z,6.27
2017-11-26T12:38:27.754Z,7.43
2017-11-26T12:40:55.308Z,16.03
2017-11-26T12:43:23.583Z,9.87
2017-11-26T12:45:51.863Z,7.00
2017-11-26T12:48:19.447Z,7.60
2017-11-26T12:50:47.703Z,8.17
2017-11-26T12:53:15.256Z,5.40
2017-11-26T12:55:43.507Z,7.73
2017-11-26T12:58:11.032Z,5.93
2017-11-26T13:00:38.498Z,6.20
2017-11-26T13:03:05.982Z,5.87
2017-11-26T13:05:33.560Z,5.87
2017-11-26T13:08:01.811Z,5.63
2017-11-26T13:10:30.957Z,6.53
2017-11-26T13:12:58.796Z,5.77
2017-11-26T13:15:27.079Z,5.80
2017-11-26T13:17:55.325Z,5.83
2017-11-26T13:20:23.591Z,8.07
2017-11-26T13:22:51.077Z,5.60
2017-11-26T13:25:19.598Z,6.90
2017-11-26T13:27:47.125Z,5.70
2017-11-26T13:30:15.408Z,7.17
2017-11-26T13:32:43.669Z,6.07
2017-11-26T13:35:11.915Z,5.97
2017-11-26T13:37:39.430Z,6.97
2017-11-26T13:40:06.926Z,5.43
2017-11-26T13:42:34.417Z,6.73
2017-11-26T13:45:02.700Z,6.90
2017-11-26T13:47:31.007Z,7.63
2017-11-26T13:49:58.501Z,8.40
2017-11-26T13:52:25.999Z,5.90
2017-11-26T13:54:54.278Z,7.10
2017-11-26T13:57:22.537Z,6.20
2017-11-26T13:59:50.814Z,6.00
2017-11-26T14:02:18.297Z,7.60
2017-11-26T14:04:45.800Z,7.23
2017-11-26T14:07:13.306Z,5.90
2017-11-26T14:09:40.790Z,6.60
2017-11-26T14:12:08.318Z,6.57
2017-11-26T14:14:35.833Z,7.73
2017-11-26T14:17:03.338Z,5.73
2017-11-26T14:19:30.854Z,7.23
2017-11-26T14:21:58.353Z,6.30
2017-11-26T14:24:26.605Z,5.47
2017-11-26T14:26:54.098Z,6.43
2017-11-26T14:29:22.353Z,6.10
2017-11-26T14:31:50.620Z,5.70
2017-11-26T14:34:18.109Z,6.13
2017-11-26T14:36:45.651Z,5.83
2017-11-26T14:39:13.218Z,5.67
2017-11-26T14:41:40.708Z,5.73
2017-11-26T14:44:08.200Z,5.90
2017-11-26T14:46:35.689Z,6.37
2017-11-26T14:49:03.360Z,5.57
2017-11-26T14:51:30.918Z,7.87
2017-11-26T14:53:58.414Z,6.77
2017-11-26T14:56:25.890Z,5.20
2017-11-26T14:58:53.389Z,6.20
2017-11-26T15:01:21.724Z,5.40
2017-11-26T15:03:49.208Z,6.50
2017-11-26T15:06:17.530Z,6.17
2017-11-26T15:08:45.016Z,5.63
2017-11-26T15:11:12.530Z,5.57
2017-11-26T15:13:40.020Z,5.47
2017-11-26T15:16:07.526Z,5.93
2017-11-26T15:18:35.016Z,5.30
2017-11-26T15:21:02.529Z,5.27
2017-11-26T15:23:30.785Z,5.30
2017-11-26T15:25:58.281Z,5.43
2017-11-26T15:28:25.769Z,5.20
2017-11-26T15:30:53.247Z,5.93
2017-11-26T15:33:20.733Z,5.53
2017-11-26T15:35:49.028Z,5.73
2017-11-26T15:38:17.307Z,5.13
2017-11-26T15:40:45.561Z,4.90
2017-11-26T15:43:13.154Z,6.03
2017-11-26T15:45:40.690Z,5.13
2017-11-26T15:48:09.010Z,6.80
2017-11-26T15:50:36.513Z,5.23
2017-11-26T15:53:04.088Z,5.57
2017-11-26T15:55:32.378Z,4.87
2017-11-26T15:57:59.860Z,4.43
2017-11-26T16:00:27.354Z,5.90
2017-11-26T16:02:56.335Z,5.10
2017-11-26T16:05:23.833Z,5.30
2017-11-26T16:07:52.086Z,6.93
2017-11-26T16:10:19.669Z,4.50
2017-11-26T16:12:47.925Z,5.03
2017-11-26T16:15:15.519Z,5.67
2017-11-26T16:17:44.430Z,4.67
2017-11-26T16:20:11.962Z,4.90
2017-11-26T16:22:40.237Z,8.40
2017-11-26T16:25:08.481Z,4.83
2017-11-26T16:27:35.987Z,5.23
2017-11-26T16:30:03.471Z,5.40
2017-11-26T16:32:30.983Z,4.67
2017-11-26T16:34:59.242Z,4.80
2017-11-26T16:37:27.542Z,6.03
2017-11-26T16:39:55.037Z,4.50
2017-11-26T16:42:22.554Z,4.70
2017-11-26T16:44:50.047Z,4.80
2017-11-26T16:47:17.568Z,5.23
2017-11-26T16:49:45.821Z,4.77
2017-11-26T16:52:13.306Z,4.73
2017-11-26T16:54:40.865Z,5.33
2017-11-26T16:57:09.926Z,5.43
2017-11-26T16:59:37.421Z,5.60
2017-11-26T17:02:06.306Z,5.20
2017-11-26T17:04:34.746Z,5.40
2017-11-26T17:07:03.792Z,5.17
2017-11-26T17:09:31.307Z,5.77
2017-11-26T17:11:58.793Z,4.57
2017-11-26T17:14:27.091Z,4.63
2017-11-26T17:16:54.641Z,6.07
2017-11-26T17:19:22.120Z,5.70
2017-11-26T17:21:50.347Z,5.20
2017-11-26T17:24:17.930Z,5.00
2017-11-26T17:26:45.485Z,6.63
2017-11-26T17:29:13.760Z,4.80
2017-11-26T17:31:42.596Z,7.80
2017-11-26T17:34:10.105Z,5.47
2017-11-26T17:36:37.673Z,4.73
2017-11-26T17:39:05.168Z,4.50
2017-11-26T17:41:32.656Z,5.10
2017-11-26T17:44:00.179Z,6.07
2017-11-26T17:46:28.221Z,5.17
2017-11-26T17:48:59.276Z,6.43
2017-11-26T17:51:26.846Z,7.13
2017-11-26T17:53:54.504Z,6.00
2017-11-26T17:56:22.009Z,4.83
2017-11-26T17:58:50.298Z,4.07
2017-11-26T18:01:18.562Z,4.60
2017-11-26T18:03:46.049Z,4.37
2017-11-26T18:06:13.553Z,4.73
2017-11-26T18:08:41.038Z,7.07
2017-11-26T18:11:09.344Z,6.63
2017-11-26T18:13:36.834Z,7.60
2017-11-26T18:16:04.355Z,5.40
2017-11-26T18:18:32.612Z,5.53
2017-11-26T18:21:00.104Z,5.00
2017-11-26T18:23:27.600Z,6.23
2017-11-26T18:25:55.196Z,5.53
2017-11-26T18:28:23.674Z,6.17
2017-11-26T18:30:51.942Z,5.50
2017-11-26T18:33:19.533Z,5.30
2017-11-26T18:35:47.040Z,4.73
2017-11-26T18:38:14.562Z,5.50
2017-11-26T18:40:42.046Z,6.70
2017-11-26T18:43:09.569Z,5.00
2017-11-26T18:45:37.100Z,6.50
2017-11-26T18:48:05.380Z,5.60
2017-11-26T18:50:33.660Z,5.23
2017-11-26T18:53:01.961Z,4.90
2017-11-26T18:55:29.548Z,6.43
2017-11-26T18:57:57.063Z,6.13
2017-11-26T19:00:24.723Z,6.33
2017-11-26T19:02:52.299Z,6.93
2017-11-26T19:05:19.816Z,5.63
2017-11-26T19:07:47.320Z,5.57
2017-11-26T19:10:14.823Z,6.77
2017-11-26T19:12:42.314Z,5.73
2017-11-26T19:15:09.827Z,5.30
2017-11-26T19:17:37.325Z,9.70
2017-11-26T19:20:06.319Z,7.40
2017-11-26T19:22:33.905Z,6.57
2017-11-26T19:25:01.436Z,5.70
2017-11-26T19:27:29.747Z,7.60
2017-11-26T19:29:57.257Z,5.27
2017-11-26T19:32:24.753Z,5.50
2017-11-26T19:34:52.352Z,4.70
2017-11-26T19:37:19.879Z,6.30
2017-11-26T19:39:47.396Z,6.63
2017-11-26T19:42:15.694Z,6.13
2017-11-26T19:44:43.204Z,5.53
2017-11-26T19:47:10.691Z,5.10
2017-11-26T19:49:38.266Z,5.37
2017-11-26T19:52:06.536Z,5.03
2017-11-26T19:54:34.803Z,5.20
2017-11-26T19:57:02.281Z,5.40
2017-11-26T19:59:29.859Z,5.23
2017-11-26T20:01:57.351Z,5.37
2017-11-26T20:04:24.913Z,5.40
2017-11-26T20:06:53.264Z,5.73
2017-11-26T20:09:20.762Z,5.23
2017-11-26T20:11:48.255Z,5.10
2017-11-26T20:14:15.767Z,7.17
2017-11-26T20:16:43.395Z,5.40
2017-11-26T20:19:10.890Z,5.97
2017-11-26T20:21:38.487Z,7.23
2017-11-26T20:24:06.757Z,5.50
2017-11-26T20:26:35.016Z,7.07
2017-11-26T20:29:02.498Z,5.73
2017-11-26T20:31:29.993Z,5.30
2017-11-26T20:33:57.478Z,5.47
2017-11-26T20:36:25.008Z,6.47
2017-11-26T20:38:52.530Z,7.00
2017-11-26T20:41:20.799Z,6.33
2017-11-26T20:43:49.074Z,10.73
2017-11-26T20:46:17.357Z,7.77
2017-11-26T20:48:45.630Z,6.13
2017-11-26T20:51:13.885Z,8.33
2017-11-26T20:53:41.482Z,6.13
2017-11-26T20:56:09.036Z,5.97
2017-11-26T20:58:36.532Z,6.63
2017-11-26T21:01:04.054Z,9.03
2017-11-26T21:03:31.568Z,7.00
2017-11-26T21:05:59.077Z,6.07
2017-11-26T21:08:26.634Z,8.80
2017-11-26T21:10:54.372Z,5.70
2017-11-26T21:13:22.650Z,5.97
2017-11-26T21:15:50.916Z,6.87
2017-11-26T21:18:18.397Z,6.23
2017-11-26T21:20:46.655Z,8.13
2017-11-26T21:23:14.147Z,7.37
2017-11-26T21:25:41.648Z,6.27
2017-11-26T21:28:09.145Z,6.60
2017-11-26T21:30:36.629Z,5.97
2017-11-26T21:33:04.162Z,5.93
2017-11-26T21:35:31.653Z,6.17
2017-11-26T21:37:59.141Z,7.63
2017-11-26T21:40:26.913Z,5.67
2017-11-26T21:42:55.228Z,6.40
2017-11-26T21:45:22.714Z,6.90
2017-11-26T21:47:50.287Z,7.40
2017-11-26T21:50:17.819Z,5.63
2017-11-26T21:52:45.335Z,6.03
2017-11-26T21:55:12.833Z,9.90
2017-11-26T21:57:40.329Z,8.00
2017-11-26T22:00:08.186Z,7.13
2017-11-26T22:02:35.752Z,7.00
2017-11-26T22:05:03.357Z,11.63
2017-11-26T22:07:30.922Z,8.13
2017-11-26T22:09:58.439Z,6.13
2017-11-26T22:12:27.461Z,6.30
2017-11-26T22:14:55.731Z,6.43
2017-11-26T22:17:24.019Z,6.73
2017-11-26T22:22:24.726Z,5.93
2017-11-26T22:24:52.213Z,6.57
2017-11-26T22:27:20.490Z,7.57
2017-11-26T22:29:48.794Z,7.67
2017-11-26T22:32:16.313Z,6.37
2017-11-26T22:34:43.800Z,6.80
2017-11-26T22:37:11.299Z,6.27
2017-11-26T22:39:38.809Z,7.93
2017-11-26T22:42:07.135Z,6.13
2017-11-26T22:44:34.629Z,7.40
2017-11-26T22:47:03.630Z,6.93
2017-11-26T22:49:31.906Z,6.57
2017-11-26T22:51:59.421Z,8.20
2017-11-26T22:54:26.938Z,6.60
2017-11-26T22:56:55.101Z,6.60
2017-11-26T22:59:23.349Z,7.33
2017-11-26T23:01:50.853Z,6.50
2017-11-26T23:04:18.398Z,6.53
2017-11-26T23:06:46.691Z,6.30
2017-11-26T23:09:14.237Z,6.27
2017-11-26T23:11:42.496Z,7.23
2017-11-26T23:14:10.073Z,5.97
2017-11-26T23:16:38.380Z,9.13
2017-11-26T23:19:05.874Z,8.47
2017-11-26T23:21:33.363Z,6.70
2017-11-26T23:24:01.634Z,5.93
2017-11-26T23:26:29.897Z,8.00
2017-11-26T23:28:57.372Z,6.63
2017-11-26T23:31:25.632Z,6.23
2017-11-26T23:33:53.147Z,6.50
2017-11-26T23:36:20.669Z,7.35
2017-11-26T23:38:48.933Z,7.23
2017-11-26T23:41:17.204Z,7.23
2017-11-26T23:43:44.781Z,7.40
2017-11-26T23:46:13.063Z,6.60
2017-11-26T23:48:40.557Z,6.67
2017-11-26T23:51:08.076Z,6.50
2017-11-26T23:53:35.568Z,7.78
2017-11-26T23:56:03.101Z,6.90
2017-11-26T23:58:30.653Z,6.97
